createdAt,value
2019-05-22T00:01:01.517Z,16.07
2019-05-22T00:06:06.760Z,16.14
2019-05-22T00:11:12.652Z,16.03
2019-05-22T00:16:17.514Z,15.85
2019-05-22T00:21:22.790Z,15.76
2019-05-22T00:26:28.903Z,15.67
2019-05-22T00:31:33.205Z,15.87
2019-05-22T00:36:37.455Z,15.97
2019-05-22T00:41:42.309Z,15.88
2019-05-22T00:46:48.062Z,15.33
2019-05-22T00:52:09.859Z,15.59
2019-05-22T00:57:45.348Z,15.22
2019-05-22T01:02:53.207Z,15.26
2019-05-22T01:07:58.118Z,15.26
2019-05-22T01:13:04.404Z,15.24
2019-05-22T01:18:14.282Z,15.05
2019-05-22T01:23:21.439Z,15.21
2019-05-22T01:28:26.294Z,14.99
2019-05-22T01:33:33.639Z,15.06
2019-05-22T01:38:40.501Z,15.18
2019-05-22T01:43:46.216Z,15.27
2019-05-22T01:48:55.847Z,15.08
2019-05-22T01:54:00.999Z,14.76
2019-05-22T01:59:07.428Z,14.71
2019-05-22T02:04:14.981Z,14.62
2019-05-22T02:09:35.444Z,14.67
2019-05-22T02:14:44.294Z,14.70
2019-05-22T02:19:49.125Z,14.58
2019-05-22T02:24:55.256Z,14.60
2019-05-22T02:29:59.497Z,14.48
2019-05-22T02:35:05.423Z,14.62
2019-05-22T02:40:15.363Z,14.44
2019-05-22T02:45:20.829Z,14.50
2019-05-22T02:50:25.728Z,14.32
2019-05-22T02:55:30.271Z,14.27
2019-05-22T03:00:47.884Z,14.25
2019-05-22T03:05:52.907Z,14.11
2019-05-22T03:10:57.817Z,14.44
2019-05-22T03:16:02.722Z,14.19
2019-05-22T03:21:09.031Z,14.25
2019-05-22T03:26:14.896Z,14.26
2019-05-22T03:31:19.135Z,14.02
2019-05-22T03:36:24.489Z,14.13
2019-05-22T03:41:28.725Z,14.20
2019-05-22T03:46:42.456Z,14.01
2019-05-22T03:51:50.788Z,14.29
2019-05-22T03:56:55.883Z,14.01
2019-05-22T04:02:00.410Z,13.97
2019-05-22T04:07:06.698Z,13.95
2019-05-22T04:12:11.722Z,13.75
2019-05-22T04:17:17.690Z,13.78
2019-05-22T04:22:22.586Z,13.56
2019-05-22T04:27:26.928Z,13.57
2019-05-22T04:32:34.878Z,13.61
2019-05-22T04:37:40.726Z,13.48
2019-05-22T04:42:45.120Z,13.35
2019-05-22T04:47:58.418Z,13.10
2019-05-22T04:53:03.667Z,13.25
2019-05-22T04:58:10.740Z,13.13
2019-05-22T05:03:15.771Z,13.30
2019-05-22T05:08:20.248Z,12.89
2019-05-22T05:13:25.283Z,12.99
2019-05-22T05:18:29.945Z,13.14
2019-05-22T05:23:34.192Z,13.43
2019-05-22T05:28:39.113Z,13.24
2019-05-22T05:34:08.510Z,13.20
2019-05-22T05:40:09.927Z,13.04
2019-05-22T05:45:14.272Z,13.10
2019-05-22T05:50:20.284Z,12.93
2019-05-22T05:55:28.776Z,12.77
2019-05-22T06:00:36.073Z,12.51
2019-05-22T06:05:40.356Z,12.77
2019-05-22T06:11:27.071Z,12.45
2019-05-22T06:17:20.053Z,12.42
2019-05-22T06:22:24.406Z,12.30
2019-05-22T06:27:31.582Z,12.29
2019-05-22T06:33:26.122Z,12.43
2019-05-22T06:39:02.143Z,12.25
2019-05-22T06:44:42.125Z,12.27
2019-05-22T06:49:57.373Z,12.39
2019-05-22T06:55:01.965Z,12.68
2019-05-22T07:00:21.682Z,12.48
2019-05-22T07:05:25.924Z,12.36
2019-05-22T07:10:31.755Z,12.63
2019-05-22T07:15:41.795Z,12.69
2019-05-22T07:20:48.909Z,12.52
2019-05-22T07:25:53.577Z,12.56
2019-05-22T07:30:57.992Z,12.38
2019-05-22T07:36:10.229Z,12.50
2019-05-22T07:41:10.227Z,12.54
2019-05-22T07:46:14.620Z,12.55
2019-05-22T07:51:19.965Z,12.51
2019-05-22T07:56:24.282Z,12.48
2019-05-22T08:01:28.937Z,12.54
2019-05-22T08:06:33.960Z,12.46
2019-05-22T08:11:38.768Z,12.36
2019-05-22T08:16:43.608Z,12.45
2019-05-22T08:21:48.479Z,12.55
2019-05-22T08:26:55.044Z,12.68
2019-05-22T08:32:00.622Z,12.53
2019-05-22T08:37:07.217Z,12.51
2019-05-22T08:42:15.444Z,12.82
2019-05-22T08:47:20.561Z,12.74
2019-05-22T08:52:25.408Z,12.66
2019-05-22T08:57:30.146Z,12.67
2019-05-22T09:02:34.378Z,12.90
2019-05-22T09:07:39.746Z,12.74
2019-05-22T09:12:44.571Z,12.85
2019-05-22T09:17:48.822Z,13.05
2019-05-22T09:22:53.596Z,13.22
2019-05-22T09:27:58.562Z,13.06
2019-05-22T09:33:03.342Z,12.92
2019-05-22T09:38:07.718Z,12.86
2019-05-22T09:43:11.951Z,12.99
2019-05-22T09:48:16.578Z,13.05
2019-05-22T09:53:21.543Z,13.09
2019-05-22T09:58:25.983Z,13.51
2019-05-22T10:03:30.333Z,13.60
2019-05-22T10:08:34.909Z,13.48
2019-05-22T10:13:39.494Z,13.17
2019-05-22T10:18:44.199Z,13.12
2019-05-22T10:23:48.685Z,13.15
2019-05-22T10:28:52.985Z,13.15
2019-05-22T10:33:57.253Z,13.05
2019-05-22T10:39:01.651Z,13.19
2019-05-22T10:44:06.956Z,13.28
2019-05-22T10:49:11.293Z,13.53
2019-05-22T10:54:15.560Z,13.36
2019-05-22T10:59:19.862Z,13.03
2019-05-22T11:04:25.563Z,12.96
2019-05-22T11:09:30.831Z,13.13
2019-05-22T11:14:35.409Z,13.13
2019-05-22T11:19:39.855Z,13.12
2019-05-22T11:24:44.142Z,12.97
2019-05-22T11:29:48.962Z,12.97
2019-05-22T11:34:53.870Z,13.22
2019-05-22T11:39:58.122Z,13.14
2019-05-22T11:45:02.465Z,13.15
2019-05-22T11:50:07.195Z,13.37
2019-05-22T11:55:13.556Z,13.45
2019-05-22T12:00:20.208Z,13.42
2019-05-22T12:05:25.633Z,13.07
2019-05-22T12:10:30.451Z,12.83
2019-05-22T12:15:35.380Z,12.90
2019-05-22T12:20:40.147Z,12.90
2019-05-22T12:25:44.542Z,13.09
2019-05-22T12:30:49.651Z,13.13
2019-05-22T12:35:54.778Z,13.05
2019-05-22T12:40:59.597Z,12.91
2019-05-22T12:46:03.861Z,13.01
2019-05-22T12:51:08.108Z,13.25
2019-05-22T12:56:12.440Z,13.18
2019-05-22T13:01:18.586Z,13.11
2019-05-22T13:06:23.072Z,13.04
2019-05-22T13:11:27.567Z,12.97
2019-05-22T13:16:33.288Z,12.94
2019-05-22T13:21:39.403Z,12.90
2019-05-22T13:26:45.566Z,12.99
2019-05-22T13:31:52.511Z,12.84
2019-05-22T13:36:57.374Z,12.93
2019-05-22T13:42:01.636Z,12.85
2019-05-22T13:47:08.403Z,12.80
2019-05-22T13:52:14.636Z,12.96
2019-05-22T13:57:19.637Z,12.65
2019-05-22T14:02:27.091Z,12.74
2019-05-22T14:07:30.682Z,12.75
2019-05-22T14:12:34.944Z,12.80
2019-05-22T14:17:39.269Z,12.73
2019-05-22T14:22:43.518Z,12.73
2019-05-22T14:27:47.891Z,12.66
2019-05-22T14:32:52.361Z,12.78
2019-05-22T14:37:57.006Z,12.63
2019-05-22T14:43:01.754Z,12.72
2019-05-22T14:48:06.035Z,12.81
2019-05-22T14:53:13.112Z,12.78
2019-05-22T14:58:18.738Z,12.75
2019-05-22T15:03:24.056Z,12.67
2019-05-22T15:08:28.286Z,12.91
2019-05-22T15:13:32.869Z,12.86
2019-05-22T15:18:37.269Z,12.92
2019-05-22T15:23:43.492Z,12.74
2019-05-22T15:28:47.973Z,12.72
2019-05-22T15:33:52.529Z,12.78
2019-05-22T15:38:57.533Z,12.85
2019-05-22T15:44:02.000Z,12.94
2019-05-22T15:49:07.456Z,12.87
2019-05-22T15:54:12.778Z,12.86
2019-05-22T15:59:20.190Z,12.85
2019-05-22T16:04:24.677Z,12.83
2019-05-22T16:09:30.095Z,12.89
2019-05-22T16:14:37.235Z,12.91
2019-05-22T16:19:42.148Z,12.94
2019-05-22T16:24:46.397Z,12.93
2019-05-22T16:29:50.925Z,12.90
2019-05-22T16:34:56.150Z,12.82
2019-05-22T16:40:01.052Z,12.85
2019-05-22T16:45:06.988Z,12.96
2019-05-22T16:50:12.740Z,12.80
2019-05-22T16:55:18.099Z,12.85
2019-05-22T17:00:22.853Z,12.93
2019-05-22T17:05:27.887Z,12.87
2019-05-22T17:10:32.266Z,12.97
2019-05-22T17:15:38.518Z,12.98
2019-05-22T17:20:43.591Z,12.95
2019-05-22T17:25:48.056Z,12.95
2019-05-22T17:30:53.305Z,12.97
2019-05-22T17:35:58.541Z,12.95
2019-05-22T17:41:04.798Z,13.07
2019-05-22T17:46:10.555Z,12.96
2019-05-22T17:51:16.152Z,12.97
2019-05-22T17:56:21.319Z,13.09
2019-05-22T18:01:26.208Z,13.03
2019-05-22T18:06:30.549Z,13.02
2019-05-22T18:11:34.915Z,13.13
2019-05-22T18:16:39.169Z,13.08
2019-05-22T18:21:44.464Z,13.00
2019-05-22T18:26:48.719Z,13.07
2019-05-22T18:31:54.535Z,12.92
2019-05-22T18:36:58.795Z,12.97
2019-05-22T18:42:03.052Z,13.24
2019-05-22T18:47:08.410Z,13.21
2019-05-22T18:52:13.586Z,13.03
2019-05-22T18:57:18.712Z,12.98
2019-05-22T19:02:23.344Z,12.95
2019-05-22T19:07:29.492Z,12.96
2019-05-22T19:12:33.756Z,12.93
2019-05-22T19:17:38.388Z,12.96
2019-05-22T19:22:58.546Z,12.95
2019-05-22T19:27:48.732Z,13.02
2019-05-22T19:32:52.998Z,12.96
2019-05-22T19:37:57.885Z,12.96
2019-05-22T19:43:02.630Z,12.99
2019-05-22T19:48:07.153Z,12.95
2019-05-22T19:53:18.743Z,12.93
2019-05-22T19:58:21.998Z,12.95
2019-05-22T20:03:26.734Z,12.87
2019-05-22T20:08:32.087Z,12.95
2019-05-22T20:13:37.309Z,12.95
2019-05-22T20:18:41.936Z,12.88
2019-05-22T20:23:46.458Z,12.89
2019-05-22T20:28:50.714Z,12.80
2019-05-22T20:33:54.949Z,12.79
2019-05-22T20:38:59.401Z,12.84
2019-05-22T20:44:04.644Z,12.85
2019-05-22T20:49:10.304Z,12.80
2019-05-22T20:54:15.220Z,12.88
2019-05-22T20:59:21.354Z,12.77
2019-05-22T21:04:27.286Z,12.65
2019-05-22T21:09:32.429Z,12.62
2019-05-22T21:14:37.130Z,12.63
2019-05-22T21:19:43.174Z,12.59
2019-05-22T21:24:47.888Z,12.64
2019-05-22T21:29:53.487Z,12.60
2019-05-22T21:34:58.306Z,12.59
2019-05-22T21:40:03.614Z,12.57
2019-05-22T21:45:09.632Z,12.54
2019-05-22T21:50:15.019Z,12.51
2019-05-22T21:55:21.931Z,12.52
2019-05-22T22:01:00.595Z,12.54
2019-05-22T22:06:06.454Z,12.53
2019-05-22T22:11:11.231Z,12.50
2019-05-22T22:16:16.724Z,12.46
2019-05-22T22:21:20.967Z,12.31
2019-05-22T22:26:26.698Z,12.41
2019-05-22T22:31:33.018Z,12.40
2019-05-22T22:36:37.640Z,12.29
2019-05-22T22:41:42.793Z,12.31
2019-05-22T22:46:58.462Z,12.28
2019-05-22T22:52:03.895Z,12.32
2019-05-22T22:57:09.449Z,12.19
2019-05-22T23:02:17.647Z,12.08
2019-05-22T23:07:23.562Z,12.17
2019-05-22T23:12:28.221Z,11.83
2019-05-22T23:17:33.333Z,12.03
2019-05-22T23:22:35.874Z,12.15
2019-05-22T23:27:40.106Z,11.99
2019-05-22T23:32:44.357Z,12.05
2019-05-22T23:37:48.691Z,12.01
2019-05-22T23:42:53.426Z,12.02
2019-05-22T23:48:06.524Z,12.00
2019-05-22T23:53:12.967Z,12.01
2019-05-22T23:58:20.240Z,11.98
